메인 페이지
METAR-TAF:

METAR-TAF

공항 :

애틀랜타, 조지아, 미국

위도: 33-46-39N, 경도: 084-31-28W, 고도: 256m

현재 날씨관측

예보는 56분 전, 22:53시(UTC)에 발표되었습니다.
남남서6kt
온도 31°C
습도 49%
기압 1015 hPa
시정: 16.1km
맑음

METAR: KFTY 172253Z 20006KT 10SM CLR 31/19 A2998 RMK AO2 LTG DSNT E AND S SLP141 T03110189

시각: 19:49 (23:49 UTC)

예보

예보는 11분 전, 23:38시(UTC)에 발표되었습니다.
예보 대상 시간: 18일 00시부터 18일 24시까지 (UTC)
5kt
시정: 10km
고도 4000ft 상공 구름 조금
고도 7000ft 상공 구름 보통
고도 12000ft 상공 구름 보통
시계 내 소나기
일시적
18일 00시부터 18일 01시까지 (UTC)
여러 방향의 바람 10kt, 순간 최대 풍속 25kt
시정: 9.7km
고도 4000ft 상공 구름 보통, 적란운.
고도 7000ft 상공 구름 많음
뇌우, 약한비
18일 0200시부터 (UTC)
kt
시정: 10km
고도 25000ft 상공 구름 많음
18일 1000시부터 (UTC)
kt
시정: 10km
고도 1200ft 상공 구름 많음
18일 1400시부터 (UTC)
남서4kt
시정: 10km
고도 2500ft 상공 구름 많음
18일 1700시부터 (UTC)
남서6kt
시정: 10km
고도 4000ft 상공 구름 많음
시계 내 소나기
확률 30%
18일 18시부터 18일 24시까지 (UTC)
시정: 6.4km
고도 3000ft 상공 흐림, 적란운.
뇌우, 비

TAF: KFTY 172338Z 1800/1824 19005KT P6SM VCSH FEW040 SCT070 SCT120 TEMPO 1800/1801 VRB10G25KT 6SM -TSRA SCT040CB BKN070 FM180200 00000KT P6SM BKN250 FM181000 00000KT P6SM BKN012 FM181400 22004KT P6SM BKN025 FM181700 22006KT P6SM VCSH BKN040 PROB30 1818/1824 4SM TSRA OVC030CB

4,000개 이상의 공항 관측 자료 및 예보 (METAR 및 TAF 보고).

지도상에서 검색 가능한 기상관측소가 노란 점과 빨간 점으로 표시되어 있습니다.

기상관측소 명을 보려면 표시 위로 마우스를 이동하세요.

날씨 관측과 예보를 보려면 클릭하세요.

지도 변경 : 확대하려면 엑스 표시가 있는 녹색 버튼, 축소하려면 빼기 표시가 있는 녹색 버튼, 다음 페이지의 지도를 보려면 녹색 화살표를 클릭하세요.


METAR-TAF: